Forside
METAR-TAF:

METAR-TAF

Lufthavne :

Monroe Municipal Airport

Monroe, Wisconsin, USA

Breddekreds: 42-36-54N, længdekreds: 089-35-27W, højde: 331 m

Aktuelle vejr

Denne rapport blev lavet for 16 minutter siden, kl. 19:35 UTC
Vind 10 kt fra sydsydvest
Temperatur 4°C
Fugtighed 56%
Tryk 1019 hPa
Sigt: 16.1 km
skyfri

METAR: KEFT 221935Z AUTO 20010KT 10SM CLR 04/M04 A3008 RMK AO2 T00421041

Tid: 13:51 (19:51 UTC)


TAF: fraværende

Vejrobservationer og prognoser fra mere end 4000 lufthavne (METAR og TAF).

De gule og røde prikker repræsenterer de meteorologiske stationer.

Flyt musen over at se navnet på stationen.

Så klik over at se vejr observationer og prognoser.

At skifte det kort: Klik på de grønne knapper med et sort kors for at zoome ind; på den grønne knap med en bindestreg for at zoome ud; eller på de grønne pile for tilstødende kort.


METAR-TAF: